Time;durP1;ratioP1;P1;durP2;ratioP2;P2;SDS_P1;SDS_P2;PMS_P1;PMS_P2;Temp;Humidity;BMP_temperature;BMP_pressure;BME280_temperature;BME280_humidity;BME280_pressure;Samples;Min_cycle;Max_cycle;Signal;HPM_P1;HPM_P2
2022/08/16 00:02:05;;;;;;;;;;;23.90;66.00;;;;;;5091356;28;19915;-61
2022/08/16 00:04:31;;;;;;;;;;;23.80;66.10;;;;;;5089900;28;20290;-61
2022/08/16 00:06:57;;;;;;;;;;;23.80;66.30;;;;;;5090734;28;19913;-61
2022/08/16 00:09:22;;;;;;;;;;;23.70;66.40;;;;;;5091099;28;19916;-61
2022/08/16 00:11:48;;;;;;;;;;;23.70;66.50;;;;;;5090518;28;19923;-61
2022/08/16 00:14:16;;;;;;;;;;;23.60;66.50;;;;;;5091082;28;19928;-60
2022/08/16 00:16:42;;;;;;;;;;;23.60;66.50;;;;;;5091519;28;20228;-67
2022/08/16 00:19:08;;;;;;;;;;;23.50;66.50;;;;;;5087475;28;19927;-67
2022/08/16 00:21:34;;;;;;;;;;;23.50;66.60;;;;;;5089976;28;19920;-67
2022/08/16 00:24:00;;;;;;;;;;;23.50;66.60;;;;;;5090948;28;20329;-67
2022/08/16 00:26:25;;;;;;;;;;;23.40;66.60;;;;;;5090909;28;19939;-67
2022/08/16 00:28:51;;;;;;;;;;;23.40;66.60;;;;;;5094950;28;20011;-67
2022/08/16 00:31:16;;;;;;;;;;;23.40;66.80;;;;;;5103136;28;19923;-67
2022/08/16 00:33:42;;;;;;;;;;;23.30;66.90;;;;;;5092681;28;19961;-61
2022/08/16 00:36:07;;;;;;;;;;;23.30;67.00;;;;;;5105610;28;19973;-61
2022/08/16 00:38:33;;;;;;;;;;;23.20;67.00;;;;;;5103960;28;20256;-61
2022/08/16 00:41:00;;;;;;;;;;;23.20;67.10;;;;;;5092074;28;19908;-61
2022/08/16 00:43:33;;;;;;;;;;;23.10;67.20;;;;;;5091098;28;19920;-61
2022/08/16 00:46:17;;;;;;;;;;;23.10;67.40;;;;;;5090577;28;19951;-60
2022/08/16 00:48:44;;;;;;;;;;;23.10;67.30;;;;;;5089711;28;20420;-67
2022/08/16 00:51:10;;;;;;;;;;;23.00;67.40;;;;;;5088123;28;19920;-67
2022/08/16 00:53:37;;;;;;;;;;;23.00;67.50;;;;;;5089042;28;20329;-67
2022/08/16 00:56:04;;;;;;;;;;;23.00;67.50;;;;;;5088528;28;20393;-67
2022/08/16 00:58:31;;;;;;;;;;;23.00;67.60;;;;;;5088930;28;19915;-67
2022/08/16 01:00:56;;;;;;;;;;;22.90;67.70;;;;;;5090230;28;20327;-67
2022/08/16 01:03:24;;;;;;;;;;;22.90;67.90;;;;;;5090027;28;20009;-67
2022/08/16 01:05:50;;;;;;;;;;;22.90;67.90;;;;;;5087143;28;20004;-67
2022/08/16 01:08:17;;;;;;;;;;;22.80;67.80;;;;;;5091706;28;19919;-67
2022/08/16 01:10:42;;;;;;;;;;;22.80;67.80;;;;;;5089768;28;19912;-67
2022/08/16 01:13:13;;;;;;;;;;;22.80;67.80;;;;;;5089761;28;20263;-67
2022/08/16 01:15:42;;;;;;;;;;;22.70;67.90;;;;;;5088000;28;19973;-67
2022/08/16 01:18:09;;;;;;;;;;;22.70;67.90;;;;;;5080790;28;19920;-60
2022/08/16 01:20:37;;;;;;;;;;;22.70;67.90;;;;;;5089715;28;19955;-60
2022/08/16 01:23:16;;;;;;;;;;;22.60;67.90;;;;;;5089641;28;19959;-67
2022/08/16 01:25:44;;;;;;;;;;;22.60;68.10;;;;;;5088135;28;19912;-60
2022/08/16 01:28:12;;;;;;;;;;;22.50;68.10;;;;;;5090715;28;19916;-67
2022/08/16 01:30:40;;;;;;;;;;;22.50;68.20;;;;;;5089974;28;19917;-68
2022/08/16 01:33:06;;;;;;;;;;;22.40;68.30;;;;;;5103625;28;19957;-68
2022/08/16 01:35:38;;;;;;;;;;;22.40;68.40;;;;;;5104157;28;19908;-69
2022/08/16 01:38:33;;;;;;;;;;;22.40;68.40;;;;;;5105674;28;19920;-61
2022/08/16 01:41:04;;;;;;;;;;;22.30;68.30;;;;;;5073820;28;19915;-68
2022/08/16 01:43:31;;;;;;;;;;;22.30;68.30;;;;;;5089352;28;20301;-68
2022/08/16 01:45:58;;;;;;;;;;;22.30;68.40;;;;;;5096158;28;19919;-61
2022/08/16 01:48:26;;;;;;;;;;;22.30;68.50;;;;;;5069989;28;19948;-61
2022/08/16 01:50:52;;;;;;;;;;;22.20;68.50;;;;;;5080760;28;19952;-61
2022/08/16 01:53:17;;;;;;;;;;;22.20;68.60;;;;;;5091609;28;20004;-61
2022/08/16 01:55:44;;;;;;;;;;;22.10;68.70;;;;;;5090216;28;19916;-61
2022/08/16 01:58:11;;;;;;;;;;;22.10;68.80;;;;;;5091335;28;20007;-68
2022/08/16 02:00:36;;;;;;;;;;;22.10;69.00;;;;;;5088832;28;20377;-69
2022/08/16 02:03:02;;;;;;;;;;;22.00;68.90;;;;;;5087813;28;19919;-61
2022/08/16 02:05:28;;;;;;;;;;;22.00;68.90;;;;;;5088840;28;19922;-68
2022/08/16 02:07:53;;;;;;;;;;;22.00;69.00;;;;;;5088981;28;19956;-68
2022/08/16 02:10:19;;;;;;;;;;;22.00;69.20;;;;;;5091258;28;19916;-61
2022/08/16 02:12:44;;;;;;;;;;;22.00;69.30;;;;;;5089344;28;19920;-68
2022/08/16 02:15:10;;;;;;;;;;;22.00;69.30;;;;;;5089780;28;19931;-61
2022/08/16 02:17:36;;;;;;;;;;;22.00;69.40;;;;;;5089320;28;19916;-61
2022/08/16 02:20:03;;;;;;;;;;;22.00;69.50;;;;;;5089813;28;20404;-67
2022/08/16 02:22:28;;;;;;;;;;;21.90;69.60;;;;;;5097581;28;20404;-61
2022/08/16 02:24:54;;;;;;;;;;;21.90;69.70;;;;;;5089860;28;19917;-61
2022/08/16 02:27:19;;;;;;;;;;;21.90;69.80;;;;;;5089170;28;19942;-68
2022/08/16 02:29:45;;;;;;;;;;;21.90;69.80;;;;;;5089589;28;19919;-66
2022/08/16 02:32:13;;;;;;;;;;;21.90;69.80;;;;;;5093557;28;19920;-59
2022/08/16 02:34:38;;;;;;;;;;;21.90;69.70;;;;;;5103765;28;19931;-61
2022/08/16 02:37:04;;;;;;;;;;;21.90;69.70;;;;;;5101006;28;19924;-66
2022/08/16 02:39:29;;;;;;;;;;;21.90;69.80;;;;;;5092497;28;19908;-60
2022/08/16 02:41:55;;;;;;;;;;;21.90;69.90;;;;;;5093820;28;20523;-62
2022/08/16 02:44:22;;;;;;;;;;;21.80;70.00;;;;;;5097524;28;20411;-60
2022/08/16 02:46:47;;;;;;;;;;;21.80;70.20;;;;;;5108976;28;19907;-61
2022/08/16 02:49:13;;;;;;;;;;;21.80;70.30;;;;;;5106020;28;19998;-62
2022/08/16 02:51:39;;;;;;;;;;;21.80;70.20;;;;;;5098721;28;19908;-61
2022/08/16 02:54:05;;;;;;;;;;;21.70;70.20;;;;;;5092454;28;19919;-63
2022/08/16 02:56:31;;;;;;;;;;;21.80;70.30;;;;;;5093146;28;19923;-61
2022/08/16 02:58:56;;;;;;;;;;;21.70;70.30;;;;;;5093316;28;19924;-60
2022/08/16 03:01:24;;;;;;;;;;;21.70;70.40;;;;;;5094144;28;20360;-61
2022/08/16 03:03:50;;;;;;;;;;;21.70;70.50;;;;;;5089872;28;19912;-61
2022/08/16 03:06:19;;;;;;;;;;;21.60;70.40;;;;;;5085437;28;19919;-61
2022/08/16 03:08:45;;;;;;;;;;;21.60;70.50;;;;;;5094283;28;20451;-61
2022/08/16 03:11:11;;;;;;;;;;;21.60;70.50;;;;;;5092172;28;20023;-61
2022/08/16 03:13:37;;;;;;;;;;;21.60;70.60;;;;;;5089233;28;20364;-61
2022/08/16 03:16:03;;;;;;;;;;;21.50;71.20;;;;;;5098136;28;19916;-60
2022/08/16 03:18:29;;;;;;;;;;;21.50;70.60;;;;;;5092200;28;19959;-61
2022/08/16 03:20:55;;;;;;;;;;;21.50;70.60;;;;;;5088702;28;19920;-61
2022/08/16 03:23:21;;;;;;;;;;;21.50;70.60;;;;;;5088191;28;19912;-61
2022/08/16 03:25:47;;;;;;;;;;;21.50;70.70;;;;;;5082495;28;19951;-61
2022/08/16 03:28:13;;;;;;;;;;;21.40;70.80;;;;;;5095797;28;19992;-67
2022/08/16 03:30:38;;;;;;;;;;;21.40;70.80;;;;;;5090307;28;19927;-68
2022/08/16 03:33:04;;;;;;;;;;;21.30;70.90;;;;;;5092499;28;19908;-68
2022/08/16 03:35:31;;;;;;;;;;;21.30;70.90;;;;;;5089907;28;19943;-69
2022/08/16 03:37:58;;;;;;;;;;;21.30;70.90;;;;;;5092083;28;19996;-67
2022/08/16 03:40:24;;;;;;;;;;;21.30;71.00;;;;;;5092560;28;19912;-68
2022/08/16 03:42:49;;;;;;;;;;;21.30;71.00;;;;;;5089397;28;20053;-61
2022/08/16 03:45:15;;;;;;;;;;;21.20;71.00;;;;;;5097746;28;20366;-67
2022/08/16 03:47:41;;;;;;;;;;;21.20;71.00;;;;;;5102871;28;19920;-67
2022/08/16 03:50:07;;;;;;;;;;;21.20;71.10;;;;;;5098320;28;20345;-67
2022/08/16 03:52:34;;;;;;;;;;;21.10;71.20;;;;;;5105455;28;19926;-67
2022/08/16 03:55:00;;;;;;;;;;;21.10;71.20;;;;;;5100531;28;19919;-60
2022/08/16 03:57:26;;;;;;;;;;;21.10;71.30;;;;;;5103126;28;20374;-67
2022/08/16 03:59:52;;;;;;;;;;;21.10;71.30;;;;;;5098422;27;20025;-60
2022/08/16 04:02:17;;;;;;;;;;;21.10;71.40;;;;;;5111049;27;20007;-67
2022/08/16 04:04:45;;;;;;;;;;;21.00;71.40;;;;;;5102690;28;20293;-67
2022/08/16 04:07:11;;;;;;;;;;;21.00;71.40;;;;;;5103301;27;19923;-67
2022/08/16 04:09:37;;;;;;;;;;;21.00;71.40;;;;;;5104046;28;19920;-67
2022/08/16 04:12:03;;;;;;;;;;;21.00;71.40;;;;;;5104955;28;20000;-60
2022/08/16 04:14:29;;;;;;;;;;;21.00;71.60;;;;;;5105327;28;19925;-67
2022/08/16 04:16:55;;;;;;;;;;;20.90;71.50;;;;;;5101531;28;19919;-60
2022/08/16 04:19:23;;;;;;;;;;;20.90;71.50;;;;;;5107795;28;19958;-60
2022/08/16 04:21:49;;;;;;;;;;;20.90;71.50;;;;;;5103793;28;20350;-60
2022/08/16 04:24:14;;;;;;;;;;;20.90;71.60;;;;;;5098923;28;19969;-60
2022/08/16 04:26:49;;;;;;;;;;;20.90;71.60;;;;;;5098698;28;19920;-62
2022/08/16 04:29:15;;;;;;;;;;;20.90;71.60;;;;;;5099509;27;19923;-68
2022/08/16 04:31:40;;;;;;;;;;;20.80;71.70;;;;;;5099634;28;19924;-68
2022/08/16 04:34:06;;;;;;;;;;;20.80;71.80;;;;;;5095841;28;20046;-67
2022/08/16 04:36:31;;;;;;;;;;;20.80;71.90;;;;;;5101919;28;19927;-60
2022/08/16 04:38:57;;;;;;;;;;;20.80;72.00;;;;;;5103910;28;19923;-60
2022/08/16 04:41:23;;;;;;;;;;;20.70;72.00;;;;;;5095013;28;19923;-60
2022/08/16 04:43:50;;;;;;;;;;;20.80;72.10;;;;;;5106037;28;20236;-67
2022/08/16 04:46:15;;;;;;;;;;;20.80;72.10;;;;;;5101462;28;20383;-67
2022/08/16 04:48:41;;;;;;;;;;;20.70;72.20;;;;;;5096286;28;19959;-67
2022/08/16 04:51:07;;;;;;;;;;;20.80;72.30;;;;;;5087212;28;19997;-67
2022/08/16 04:53:32;;;;;;;;;;;20.70;72.40;;;;;;5090860;28;20211;-61
2022/08/16 04:55:59;;;;;;;;;;;20.70;72.50;;;;;;5095147;28;19922;-60
2022/08/16 04:58:25;;;;;;;;;;;20.80;72.80;;;;;;5090967;28;19908;-67
2022/08/16 05:00:51;;;;;;;;;;;20.80;72.80;;;;;;5091114;28;19995;-67
2022/08/16 05:03:16;;;;;;;;;;;20.80;72.80;;;;;;5091472;28;20015;-60
2022/08/16 05:05:42;;;;;;;;;;;20.80;72.80;;;;;;5090283;28;19916;-61
2022/08/16 05:08:07;;;;;;;;;;;20.90;72.80;;;;;;5083788;28;20040;-61
2022/08/16 05:10:33;;;;;;;;;;;20.90;72.80;;;;;;5100778;28;19969;-68
2022/08/16 05:13:00;;;;;;;;;;;21.00;72.70;;;;;;5090851;28;19912;-61
2022/08/16 05:15:26;;;;;;;;;;;21.10;72.60;;;;;;5087683;28;19951;-68
2022/08/16 05:17:51;;;;;;;;;;;21.10;72.80;;;;;;5088463;28;19962;-68
2022/08/16 05:20:17;;;;;;;;;;;21.20;72.90;;;;;;5097951;28;19916;-61
2022/08/16 05:22:42;;;;;;;;;;;21.20;72.90;;;;;;5081981;28;20378;-61
2022/08/16 05:25:09;;;;;;;;;;;21.20;72.80;;;;;;5084712;28;19916;-60
2022/08/16 05:27:34;;;;;;;;;;;21.30;72.90;;;;;;5089965;28;19912;-61
2022/08/16 05:30:00;;;;;;;;;;;21.30;72.70;;;;;;5094707;28;19970;-68
2022/08/16 05:32:26;;;;;;;;;;;21.40;72.80;;;;;;5084497;28;19987;-61
2022/08/16 05:34:52;;;;;;;;;;;21.50;72.70;;;;;;5089320;28;19916;-60
2022/08/16 05:37:17;;;;;;;;;;;21.60;72.80;;;;;;5089749;28;19915;-67
2022/08/16 05:39:43;;;;;;;;;;;21.60;72.70;;;;;;5089574;28;19916;-67
2022/08/16 05:42:08;;;;;;;;;;;21.70;72.60;;;;;;5088991;28;19908;-67
2022/08/16 05:44:34;;;;;;;;;;;21.80;72.50;;;;;;5088661;28;20581;-60
2022/08/16 05:47:00;;;;;;;;;;;21.80;72.50;;;;;;5089440;28;19961;-61
2022/08/16 05:49:27;;;;;;;;;;;21.90;72.60;;;;;;5090456;28;20000;-67
2022/08/16 05:51:55;;;;;;;;;;;22.00;72.50;;;;;;5089485;28;19979;-61
2022/08/16 05:54:21;;;;;;;;;;;22.10;72.60;;;;;;5088920;28;20019;-61
2022/08/16 05:56:47;;;;;;;;;;;22.10;72.40;;;;;;5088497;28;20003;-61
2022/08/16 05:59:14;;;;;;;;;;;22.10;72.20;;;;;;5090640;28;20275;-61
2022/08/16 06:01:40;;;;;;;;;;;22.20;72.00;;;;;;5088948;28;19947;-61
2022/08/16 06:04:07;;;;;;;;;;;22.30;71.80;;;;;;5090477;28;20559;-68
2022/08/16 06:06:32;;;;;;;;;;;22.40;71.90;;;;;;5088060;28;19964;-67
2022/08/16 06:08:58;;;;;;;;;;;22.40;71.50;;;;;;5090527;28;19916;-68
2022/08/16 06:11:23;;;;;;;;;;;22.40;71.40;;;;;;5088786;28;19916;-68
2022/08/16 06:13:49;;;;;;;;;;;22.50;71.40;;;;;;5089206;28;19927;-68
2022/08/16 06:16:15;;;;;;;;;;;22.60;71.40;;;;;;5089399;28;19969;-67
2022/08/16 06:18:43;;;;;;;;;;;22.60;71.20;;;;;;5090267;28;20004;-68
2022/08/16 06:21:10;;;;;;;;;;;22.70;71.10;;;;;;5097434;28;20044;-68
2022/08/16 06:23:35;;;;;;;;;;;22.70;70.80;;;;;;5086112;28;19916;-68
2022/08/16 06:26:01;;;;;;;;;;;22.80;70.60;;;;;;5088445;28;20626;-68
2022/08/16 06:28:26;;;;;;;;;;;22.80;70.50;;;;;;5087826;28;20286;-68
2022/08/16 06:30:52;;;;;;;;;;;22.90;70.40;;;;;;5093615;28;19947;-68
2022/08/16 06:33:18;;;;;;;;;;;23.00;70.30;;;;;;5091025;28;19920;-68
2022/08/16 06:35:45;;;;;;;;;;;23.00;69.90;;;;;;5086024;28;20392;-68
2022/08/16 06:38:10;;;;;;;;;;;23.00;69.50;;;;;;5087563;28;19916;-61
2022/08/16 06:40:36;;;;;;;;;;;23.10;68.90;;;;;;5083770;28;19920;-61
2022/08/16 06:43:02;;;;;;;;;;;23.10;68.80;;;;;;5086632;28;20022;-61
2022/08/16 06:45:27;;;;;;;;;;;23.20;68.60;;;;;;5094106;28;20367;-61
2022/08/16 06:47:53;;;;;;;;;;;23.20;68.10;;;;;;5086988;28;20016;-61
2022/08/16 06:50:18;;;;;;;;;;;23.30;68.00;;;;;;5087095;28;19969;-61
2022/08/16 06:52:45;;;;;;;;;;;23.40;67.50;;;;;;5086989;28;19916;-61
2022/08/16 06:55:11;;;;;;;;;;;23.40;67.40;;;;;;5088032;28;20014;-61
2022/08/16 06:57:37;;;;;;;;;;;23.50;67.30;;;;;;5088652;28;20019;-61
2022/08/16 07:00:10;;;;;;;;;;;23.60;66.80;;;;;;5087323;28;20465;-61
2022/08/16 07:02:36;;;;;;;;;;;23.70;66.80;;;;;;5088607;28;19921;-61
2022/08/16 07:05:02;;;;;;;;;;;23.80;66.70;;;;;;5087429;28;19926;-61
2022/08/16 07:07:27;;;;;;;;;;;23.80;66.50;;;;;;5095830;28;19911;-61
2022/08/16 07:09:53;;;;;;;;;;;23.90;66.20;;;;;;5089703;28;20366;-61
2022/08/16 07:12:19;;;;;;;;;;;24.00;66.00;;;;;;5088937;28;20358;-61
2022/08/16 07:14:46;;;;;;;;;;;24.00;65.60;;;;;;5088218;28;19920;-61
2022/08/16 07:17:12;;;;;;;;;;;24.10;65.50;;;;;;5089394;28;19912;-61
2022/08/16 07:19:39;;;;;;;;;;;24.10;65.10;;;;;;5085121;28;20402;-68
2022/08/16 07:22:04;;;;;;;;;;;24.20;64.40;;;;;;5076520;28;19923;-68
2022/08/16 07:24:30;;;;;;;;;;;24.20;64.20;;;;;;5086450;28;20306;-66
2022/08/16 07:26:57;;;;;;;;;;;24.10;63.70;;;;;;5088305;28;19951;-64
2022/08/16 07:29:22;;;;;;;;;;;24.10;64.00;;;;;;5091278;28;19962;-65
2022/08/16 07:31:48;;;;;;;;;;;24.20;63.60;;;;;;5091206;28;19955;-63
2022/08/16 07:34:13;;;;;;;;;;;24.20;63.60;;;;;;5102611;28;20442;-63
2022/08/16 07:36:40;;;;;;;;;;;24.30;63.60;;;;;;5110407;28;20385;-63
2022/08/16 07:39:07;;;;;;;;;;;24.40;63.50;;;;;;5087431;28;19916;-63
2022/08/16 07:41:33;;;;;;;;;;;24.50;63.20;;;;;;5088873;28;19939;-59
2022/08/16 07:43:58;;;;;;;;;;;24.60;62.80;;;;;;5088883;28;20442;-59
2022/08/16 07:46:24;;;;;;;;;;;24.70;62.70;;;;;;5094933;28;19924;-63
2022/08/16 07:48:49;;;;;;;;;;;24.70;62.20;;;;;;5085260;28;19923;-63
2022/08/16 07:51:15;;;;;;;;;;;24.80;62.00;;;;;;5088379;28;20294;-63
2022/08/16 07:53:41;;;;;;;;;;;24.80;61.90;;;;;;5089711;28;20433;-59
2022/08/16 07:56:06;;;;;;;;;;;24.90;61.40;;;;;;5089362;28;20026;-59
2022/08/16 07:58:32;;;;;;;;;;;24.90;61.10;;;;;;5092134;28;19916;-63
2022/08/16 08:01:00;;;;;;;;;;;25.00;60.90;;;;;;5095380;28;19963;-59
2022/08/16 08:03:26;;;;;;;;;;;25.10;60.80;;;;;;5091612;28;19924;-59
2022/08/16 08:05:51;;;;;;;;;;;25.10;60.00;;;;;;5081515;28;19916;-60
2022/08/16 08:08:17;;;;;;;;;;;25.10;59.90;;;;;;5086928;28;20355;-64
2022/08/16 08:10:43;;;;;;;;;;;25.10;59.90;;;;;;5089228;28;19955;-64
2022/08/16 08:13:08;;;;;;;;;;;25.10;59.80;;;;;;5091366;28;19916;-60
2022/08/16 08:15:34;;;;;;;;;;;25.20;59.80;;;;;;5090322;28;19962;-60
2022/08/16 08:18:01;;;;;;;;;;;25.30;59.90;;;;;;5087432;28;19916;-60
2022/08/16 08:20:27;;;;;;;;;;;25.40;59.40;;;;;;5090865;28;19920;-64
2022/08/16 08:22:54;;;;;;;;;;;25.50;59.30;;;;;;5089339;28;19922;-60
2022/08/16 08:25:20;;;;;;;;;;;25.60;59.50;;;;;;5089786;28;19919;-60
2022/08/16 08:27:45;;;;;;;;;;;25.70;59.10;;;;;;5086994;28;19920;-64
2022/08/16 08:30:12;;;;;;;;;;;25.80;58.70;;;;;;5089212;28;19920;-64
2022/08/16 08:32:37;;;;;;;;;;;26.00;58.60;;;;;;5093592;28;19920;-64
2022/08/16 08:35:04;;;;;;;;;;;26.10;56.80;;;;;;5090824;28;19973;-60
2022/08/16 08:37:30;;;;;;;;;;;26.10;55.60;;;;;;5083299;28;20347;-64
2022/08/16 08:39:55;;;;;;;;;;;26.00;54.90;;;;;;5089461;28;19999;-64
2022/08/16 08:42:21;;;;;;;;;;;26.00;54.90;;;;;;5086648;28;20015;-60
2022/08/16 08:44:46;;;;;;;;;;;26.00;54.60;;;;;;5091912;28;19916;-60
2022/08/16 08:47:12;;;;;;;;;;;26.00;54.90;;;;;;5080855;28;19931;-61
2022/08/16 08:49:38;;;;;;;;;;;26.00;55.20;;;;;;5086772;28;19927;-67
2022/08/16 08:52:04;;;;;;;;;;;26.00;55.30;;;;;;5085783;28;19916;-67
2022/08/16 08:54:31;;;;;;;;;;;26.10;55.70;;;;;;5087479;28;20265;-61
2022/08/16 08:56:57;;;;;;;;;;;26.10;55.80;;;;;;5088822;28;19969;-61
2022/08/16 08:59:22;;;;;;;;;;;26.30;55.80;;;;;;5092605;28;20343;-61
2022/08/16 09:01:49;;;;;;;;;;;26.40;55.60;;;;;;5089207;28;20382;-61
2022/08/16 09:04:15;;;;;;;;;;;26.50;55.10;;;;;;5090299;28;20011;-61
2022/08/16 09:06:41;;;;;;;;;;;26.60;55.20;;;;;;5093101;28;20003;-61
2022/08/16 09:09:08;;;;;;;;;;;26.60;55.10;;;;;;5092918;28;19912;-61
2022/08/16 09:11:34;;;;;;;;;;;26.70;55.20;;;;;;5096337;28;19916;-67
2022/08/16 09:14:00;;;;;;;;;;;26.80;54.90;;;;;;5092438;28;20019;-67
2022/08/16 09:16:25;;;;;;;;;;;26.90;55.10;;;;;;5094387;28;20399;-68
2022/08/16 09:18:51;;;;;;;;;;;27.00;54.50;;;;;;5089042;28;19916;-67
2022/08/16 09:21:16;;;;;;;;;;;27.00;54.50;;;;;;5092378;28;19969;-68
2022/08/16 09:23:42;;;;;;;;;;;27.10;54.70;;;;;;5096665;28;19939;-61
2022/08/16 09:26:09;;;;;;;;;;;27.20;54.60;;;;;;5090855;28;19927;-61
2022/08/16 09:28:36;;;;;;;;;;;27.40;54.50;;;;;;5096794;28;19909;-69
2022/08/16 09:31:03;;;;;;;;;;;27.50;54.10;;;;;;5096455;28;19916;-68
2022/08/16 09:33:29;;;;;;;;;;;27.60;53.50;;;;;;5097164;28;19912;-70
2022/08/16 09:35:54;;;;;;;;;;;27.60;53.30;;;;;;5088208;28;20011;-67
2022/08/16 09:38:21;;;;;;;;;;;27.60;53.40;;;;;;5091806;28;19938;-61
2022/08/16 09:40:46;;;;;;;;;;;27.80;53.50;;;;;;5091072;28;19909;-61
2022/08/16 09:43:14;;;;;;;;;;;27.90;53.20;;;;;;5094633;28;19990;-61
2022/08/16 09:45:42;;;;;;;;;;;28.00;52.80;;;;;;5092593;28;19915;-61
2022/08/16 09:48:08;;;;;;;;;;;28.10;51.80;;;;;;5094072;28;20240;-61
2022/08/16 09:50:35;;;;;;;;;;;28.10;51.90;;;;;;5093207;28;19912;-67
2022/08/16 09:53:06;;;;;;;;;;;28.20;51.80;;;;;;5093015;28;19908;-67
2022/08/16 09:55:32;;;;;;;;;;;28.30;52.10;;;;;;5091056;28;20592;-67
2022/08/16 09:57:57;;;;;;;;;;;28.30;51.40;;;;;;5089171;28;19916;-67
2022/08/16 10:00:25;;;;;;;;;;;28.30;51.70;;;;;;5089121;28;19913;-67
2022/08/16 10:02:51;;;;;;;;;;;28.20;52.10;;;;;;5087812;28;19932;-67
2022/08/16 10:05:17;;;;;;;;;;;28.30;51.90;;;;;;5091519;28;19935;-67
2022/08/16 10:07:44;;;;;;;;;;;28.20;51.60;;;;;;5091353;28;19912;-67
2022/08/16 10:10:09;;;;;;;;;;;28.40;51.80;;;;;;5090794;28;20367;-67
2022/08/16 10:15:19;;;;;;;;;;;28.60;50.70;;;;;;5088880;28;20397;-67
2022/08/16 10:17:46;;;;;;;;;;;28.80;50.20;;;;;;5089024;28;19943;-61
2022/08/16 10:20:12;;;;;;;;;;;28.90;50.20;;;;;;5087761;28;19919;-60
2022/08/16 10:22:37;;;;;;;;;;;29.10;49.70;;;;;;5093455;28;20387;-61
2022/08/16 10:25:06;;;;;;;;;;;29.20;49.50;;;;;;5089911;28;19917;-61
2022/08/16 10:27:34;;;;;;;;;;;29.30;49.60;;;;;;5093691;28;19938;-61
2022/08/16 10:30:00;;;;;;;;;;;29.50;49.60;;;;;;5094323;28;19922;-61
2022/08/16 10:32:25;;;;;;;;;;;29.70;48.40;;;;;;5097245;28;20334;-61
2022/08/16 10:34:51;;;;;;;;;;;29.60;48.00;;;;;;5101926;28;19916;-61
2022/08/16 10:37:16;;;;;;;;;;;29.60;48.40;;;;;;5107789;28;19916;-67
2022/08/16 10:39:42;;;;;;;;;;;29.80;48.50;;;;;;5094158;28;19920;-67
2022/08/16 10:42:08;;;;;;;;;;;29.90;48.50;;;;;;5095922;28;19927;-67
2022/08/16 10:44:34;;;;;;;;;;;30.00;48.30;;;;;;5098377;28;19938;-67
2022/08/16 10:46:59;;;;;;;;;;;30.20;48.30;;;;;;5103274;28;19919;-61
2022/08/16 10:49:25;;;;;;;;;;;30.40;47.70;;;;;;5096221;28;19913;-61
2022/08/16 10:51:52;;;;;;;;;;;30.50;47.80;;;;;;5088063;28;20313;-61
2022/08/16 10:54:18;;;;;;;;;;;30.60;47.30;;;;;;5085097;28;20413;-61
2022/08/16 10:56:43;;;;;;;;;;;30.60;47.50;;;;;;5090295;28;19943;-61
2022/08/16 10:59:09;;;;;;;;;;;30.60;46.40;;;;;;5090164;28;19940;-61
2022/08/16 11:01:35;;;;;;;;;;;30.50;46.60;;;;;;5090695;28;19932;-67
2022/08/16 11:04:01;;;;;;;;;;;30.70;47.00;;;;;;5088419;28;20348;-67
2022/08/16 11:06:27;;;;;;;;;;;30.90;46.70;;;;;;5087581;28;19916;-67
2022/08/16 11:08:52;;;;;;;;;;;31.10;46.80;;;;;;5094876;28;19923;-67
2022/08/16 11:11:18;;;;;;;;;;;31.20;45.10;;;;;;5085044;28;19994;-67
2022/08/16 11:13:45;;;;;;;;;;;31.20;45.40;;;;;;5090017;28;19920;-66
2022/08/16 11:16:11;;;;;;;;;;;31.30;45.70;;;;;;5090455;28;20351;-66
2022/08/16 11:18:36;;;;;;;;;;;31.40;45.50;;;;;;5092543;28;19917;-66
2022/08/16 11:21:03;;;;;;;;;;;31.50;45.50;;;;;;5087381;28;19920;-67
2022/08/16 11:23:28;;;;;;;;;;;31.70;45.10;;;;;;5090968;28;20003;-67
2022/08/16 11:25:55;;;;;;;;;;;31.90;44.70;;;;;;5089822;28;20043;-67
2022/08/16 11:28:21;;;;;;;;;;;32.00;43.80;;;;;;5091084;28;19916;-67
2022/08/16 11:30:47;;;;;;;;;;;32.00;44.30;;;;;;5091424;28;19932;-67
2022/08/16 11:33:12;;;;;;;;;;;32.00;44.20;;;;;;5089558;28;19919;-67
2022/08/16 11:35:39;;;;;;;;;;;31.90;43.90;;;;;;5086095;28;19978;-67
2022/08/16 11:38:06;;;;;;;;;;;31.70;43.20;;;;;;5085134;28;20398;-67
2022/08/16 11:40:37;;;;;;;;;;;31.50;42.90;;;;;;5083210;28;20371;-67
2022/08/16 11:43:03;;;;;;;;;;;31.40;43.20;;;;;;5087365;28;20167;-67
2022/08/16 11:45:28;;;;;;;;;;;31.60;43.10;;;;;;5090891;28;19928;-61
2022/08/16 11:47:54;;;;;;;;;;;31.90;43.20;;;;;;5089950;28;20044;-61
2022/08/16 11:50:20;;;;;;;;;;;32.10;42.10;;;;;;5087212;28;19912;-61
2022/08/16 11:52:45;;;;;;;;;;;32.20;41.20;;;;;;5091574;28;19919;-61
2022/08/16 11:55:11;;;;;;;;;;;32.10;42.00;;;;;;5086140;28;20386;-61
2022/08/16 11:57:37;;;;;;;;;;;32.30;42.30;;;;;;5088698;28;20642;-61
2022/08/16 12:00:04;;;;;;;;;;;32.60;42.40;;;;;;5090837;28;19940;-61
2022/08/16 12:02:30;;;;;;;;;;;32.90;42.40;;;;;;5093670;28;19924;-61
2022/08/16 12:04:55;;;;;;;;;;;33.20;42.40;;;;;;5091775;28;19923;-61
2022/08/16 12:07:21;;;;;;;;;;;33.50;41.50;;;;;;5090024;28;19916;-61
2022/08/16 12:09:47;;;;;;;;;;;33.50;41.30;;;;;;5092049;28;19938;-61
2022/08/16 12:12:12;;;;;;;;;;;33.40;42.20;;;;;;5090433;28;19924;-61
2022/08/16 12:14:38;;;;;;;;;;;33.40;41.90;;;;;;5094553;28;20445;-61
2022/08/16 12:17:05;;;;;;;;;;;33.40;41.70;;;;;;5085649;28;19920;-62
2022/08/16 12:19:31;;;;;;;;;;;33.00;42.00;;;;;;5086927;28;20142;-62
2022/08/16 12:21:57;;;;;;;;;;;32.70;42.80;;;;;;5090095;28;19920;-62
2022/08/16 12:24:23;;;;;;;;;;;32.50;43.00;;;;;;5093272;28;20354;-62
2022/08/16 12:26:48;;;;;;;;;;;32.60;42.60;;;;;;5089196;28;19916;-62
2022/08/16 12:29:14;;;;;;;;;;;32.40;42.70;;;;;;5088666;28;20586;-61
2022/08/16 12:31:40;;;;;;;;;;;32.20;42.50;;;;;;5088920;28;19923;-61
2022/08/16 12:34:06;;;;;;;;;;;31.90;42.60;;;;;;5084925;28;19921;-61
2022/08/16 12:36:33;;;;;;;;;;;31.60;43.20;;;;;;5089386;28;19920;-60
2022/08/16 12:38:59;;;;;;;;;;;31.40;43.60;;;;;;5094828;28;19919;-60
2022/08/16 12:41:24;;;;;;;;;;;31.30;44.00;;;;;;5088543;28;19919;-60
2022/08/16 12:43:50;;;;;;;;;;;31.20;44.40;;;;;;5093215;28;19916;-60
2022/08/16 12:46:16;;;;;;;;;;;31.10;43.70;;;;;;5095820;28;20356;-66
2022/08/16 12:48:56;;;;;;;;;;;31.00;43.90;;;;;;5095501;28;20015;-60
2022/08/16 12:51:25;;;;;;;;;;;30.90;44.00;;;;;;5087225;28;20009;-59
2022/08/16 12:53:52;;;;;;;;;;;30.70;44.70;;;;;;5094531;28;19916;-60
2022/08/16 12:56:18;;;;;;;;;;;30.60;45.30;;;;;;5091087;28;19916;-59
2022/08/16 12:58:49;;;;;;;;;;;30.50;45.70;;;;;;5082214;28;20054;-59
2022/08/16 13:01:19;;;;;;;;;;;30.50;45.90;;;;;;5095867;28;19920;-66
2022/08/16 13:03:45;;;;;;;;;;;30.60;45.60;;;;;;5098355;28;19908;-66
2022/08/16 13:06:11;;;;;;;;;;;30.70;45.50;;;;;;5089107;28;19940;-67
2022/08/16 13:08:37;;;;;;;;;;;30.80;45.60;;;;;;5093891;28;19920;-60
2022/08/16 13:11:03;;;;;;;;;;;31.00;45.70;;;;;;5087946;28;19926;-60
2022/08/16 13:13:30;;;;;;;;;;;31.20;45.60;;;;;;5083225;28;19924;-59
2022/08/16 13:15:56;;;;;;;;;;;31.30;45.70;;;;;;5092925;28;19919;-60
2022/08/16 13:18:23;;;;;;;;;;;31.70;45.40;;;;;;5090780;28;19923;-60
2022/08/16 13:20:48;;;;;;;;;;;32.20;45.00;;;;;;5087594;28;19975;-60
2022/08/16 13:23:15;;;;;;;;;;;32.50;44.40;;;;;;5092429;28;19924;-59
2022/08/16 13:25:42;;;;;;;;;;;32.90;44.20;;;;;;5092055;28;19912;-60
2022/08/16 13:28:08;;;;;;;;;;;33.20;43.80;;;;;;5091883;28;20374;-59
2022/08/16 13:30:35;;;;;;;;;;;33.40;43.70;;;;;;5090645;28;19912;-60
2022/08/16 13:33:02;;;;;;;;;;;33.40;41.20;;;;;;5095218;28;19994;-60
2022/08/16 13:35:27;;;;;;;;;;;33.30;41.60;;;;;;5095960;28;20294;-60
2022/08/16 13:37:53;;;;;;;;;;;33.50;41.40;;;;;;5092553;28;19919;-66
2022/08/16 13:40:19;;;;;;;;;;;33.70;41.50;;;;;;5087135;28;19920;-67
2022/08/16 13:42:46;;;;;;;;;;;33.70;41.10;;;;;;5078294;28;19920;-67
2022/08/16 13:45:13;;;;;;;;;;;33.60;41.10;;;;;;5082883;28;20006;-67
2022/08/16 13:47:38;;;;;;;;;;;33.50;40.50;;;;;;5093698;28;20369;-66
2022/08/16 13:50:05;;;;;;;;;;;33.50;40.60;;;;;;5086246;28;19960;-67
2022/08/16 13:52:30;;;;;;;;;;;33.60;41.00;;;;;;5088558;28;20011;-67
2022/08/16 13:54:56;;;;;;;;;;;33.70;40.90;;;;;;5091094;28;20383;-67
2022/08/16 13:57:21;;;;;;;;;;;33.80;41.00;;;;;;5093030;28;19928;-60
2022/08/16 13:59:47;;;;;;;;;;;33.90;40.10;;;;;;5096223;28;19918;-60
2022/08/16 14:02:13;;;;;;;;;;;33.70;39.80;;;;;;5084972;28;19974;-61
2022/08/16 14:04:39;;;;;;;;;;;33.30;40.50;;;;;;5091764;28;20271;-60
2022/08/16 14:07:07;;;;;;;;;;;33.00;41.30;;;;;;5087222;28;20576;-67
2022/08/16 14:09:34;;;;;;;;;;;32.60;41.10;;;;;;5087632;28;20468;-60
2022/08/16 14:12:00;;;;;;;;;;;32.20;41.00;;;;;;5082890;28;20303;-60
2022/08/16 14:14:27;;;;;;;;;;;32.00;41.70;;;;;;5095036;28;19950;-67